createdAt,value
2022-12-08T00:00:08.452Z,2.77
2022-12-08T00:02:44.283Z,2.75
2022-12-08T00:05:29.277Z,2.53
2022-12-08T00:08:14.210Z,2.71
2022-12-08T00:10:51.057Z,2.70
2022-12-08T00:13:17.628Z,2.71
2022-12-08T00:15:44.206Z,2.67
2022-12-08T00:18:10.731Z,2.66
2022-12-08T00:20:37.317Z,2.67
2022-12-08T00:23:04.354Z,1.71
2022-12-08T00:25:34.830Z,2.65
2022-12-08T00:28:02.691Z,2.52
2022-12-08T00:30:29.238Z,2.65
2022-12-08T00:32:55.884Z,2.65
2022-12-08T00:35:22.405Z,2.48
2022-12-08T00:37:48.972Z,2.66
2022-12-08T00:40:15.490Z,2.68
2022-12-08T00:42:42.032Z,1.72
2022-12-08T00:45:08.918Z,2.48
2022-12-08T00:47:35.502Z,2.73
2022-12-08T00:50:02.513Z,1.82
2022-12-08T00:52:29.318Z,2.74
2022-12-08T00:54:55.995Z,2.58
2022-12-08T00:57:22.701Z,2.68
2022-12-08T00:59:49.228Z,1.99
2022-12-08T01:02:15.850Z,2.00
2022-12-08T01:04:42.487Z,1.60
2022-12-08T01:07:09.234Z,2.73
2022-12-08T01:09:36.014Z,1.68
2022-12-08T01:12:02.586Z,2.71
2022-12-08T01:14:29.116Z,2.72
2022-12-08T01:16:55.785Z,2.19
2022-12-08T01:19:22.408Z,2.56
2022-12-08T01:21:48.983Z,2.69
2022-12-08T01:24:18.544Z,2.69
2022-12-08T01:26:46.011Z,2.72
2022-12-08T01:29:12.991Z,2.74
2022-12-08T01:31:40.281Z,2.69
2022-12-08T01:34:08.183Z,1.61
2022-12-08T01:36:38.686Z,2.69
2022-12-08T01:39:08.742Z,2.70
2022-12-08T01:41:37.632Z,2.66
2022-12-08T01:44:04.449Z,2.59
2022-12-08T01:46:33.119Z,2.58
2022-12-08T01:49:15.871Z,2.62
2022-12-08T01:51:48.491Z,2.23
2022-12-08T01:54:15.770Z,2.03
2022-12-08T01:56:52.911Z,2.60
2022-12-08T01:59:19.804Z,2.59
2022-12-08T02:01:51.181Z,2.58
2022-12-08T02:04:18.072Z,2.09
2022-12-08T02:06:47.444Z,1.23
2022-12-08T02:09:14.716Z,1.78
2022-12-08T02:11:41.292Z,1.97
2022-12-08T02:14:10.831Z,1.64
2022-12-08T02:16:43.358Z,2.29
2022-12-08T02:19:37.839Z,2.55
2022-12-08T02:22:07.365Z,2.55
2022-12-08T02:25:04.724Z,1.42
2022-12-08T02:27:44.215Z,2.47
2022-12-08T02:30:17.201Z,1.34
2022-12-08T02:33:20.736Z,1.59
2022-12-08T02:35:58.622Z,2.42
2022-12-08T02:39:19.544Z,0.71
2022-12-08T02:41:56.897Z,2.45
2022-12-08T02:44:29.484Z,2.31
2022-12-08T02:47:02.696Z,1.63
2022-12-08T02:49:33.337Z,2.02
2022-12-08T02:52:11.942Z,0.90
2022-12-08T02:54:46.465Z,1.77
2022-12-08T02:57:25.108Z,1.99
2022-12-08T03:00:07.512Z,2.01
2022-12-08T03:02:43.198Z,2.15
2022-12-08T03:05:31.456Z,1.95
2022-12-08T03:08:21.147Z,1.88
2022-12-08T03:10:56.115Z,2.11
2022-12-08T03:13:33.314Z,2.07
2022-12-08T03:16:02.754Z,1.12
2022-12-08T03:18:33.709Z,0.93
2022-12-08T03:21:01.073Z,2.08
2022-12-08T03:23:30.236Z,0.94
2022-12-08T03:26:04.447Z,2.12
2022-12-08T03:28:31.640Z,2.18
2022-12-08T03:31:02.486Z,2.16
2022-12-08T03:33:33.709Z,2.12
2022-12-08T03:36:04.131Z,2.12
2022-12-08T03:38:41.578Z,2.13
2022-12-08T03:41:20.568Z,1.56
2022-12-08T03:43:47.757Z,2.19
2022-12-08T03:46:15.828Z,2.23
2022-12-08T03:48:42.932Z,2.22
2022-12-08T03:51:09.896Z,2.26
2022-12-08T03:53:36.653Z,1.31
2022-12-08T03:56:06.025Z,2.30
2022-12-08T03:58:37.260Z,1.41
2022-12-08T04:01:04.152Z,2.30
2022-12-08T04:03:30.747Z,1.95
2022-12-08T04:05:57.429Z,2.15
2022-12-08T04:08:24.226Z,2.28
2022-12-08T04:10:50.934Z,1.33
2022-12-08T04:13:17.488Z,1.58
2022-12-08T04:15:48.568Z,2.32
2022-12-08T04:18:16.104Z,2.32
2022-12-08T04:20:44.436Z,2.30
2022-12-08T04:23:12.259Z,2.28
2022-12-08T04:25:39.560Z,2.19
2022-12-08T04:28:06.595Z,2.17
2022-12-08T04:30:33.817Z,2.16
2022-12-08T04:33:00.716Z,1.21
2022-12-08T04:35:30.186Z,1.26
2022-12-08T04:37:56.995Z,2.02
2022-12-08T04:40:23.975Z,1.95
2022-12-08T04:42:50.572Z,1.90
2022-12-08T04:45:17.357Z,1.65
2022-12-08T04:47:43.931Z,1.85
2022-12-08T04:50:11.013Z,1.81
2022-12-08T04:52:37.648Z,1.53
2022-12-08T04:55:04.528Z,1.60
2022-12-08T04:57:31.101Z,1.29
2022-12-08T04:59:57.664Z,1.64
2022-12-08T05:02:24.378Z,1.63
2022-12-08T05:07:17.653Z,0.53
2022-12-08T05:09:44.891Z,1.53
2022-12-08T05:12:11.518Z,0.34
2022-12-08T05:14:38.162Z,0.82
2022-12-08T05:17:09.349Z,1.46
2022-12-08T05:19:36.408Z,1.43
2022-12-08T05:22:02.961Z,1.40
2022-12-08T05:24:29.593Z,1.39
2022-12-08T05:26:56.185Z,1.37
2022-12-08T05:29:22.804Z,0.37
2022-12-08T05:31:49.540Z,1.28
2022-12-08T05:34:16.253Z,0.77
2022-12-08T05:36:42.936Z,0.24
2022-12-08T05:39:13.239Z,1.19
2022-12-08T05:41:39.927Z,1.03
2022-12-08T05:44:07.485Z,1.16
2022-12-08T05:46:34.506Z,1.13
2022-12-08T05:49:02.406Z,1.11
2022-12-08T05:51:29.645Z,1.12
2022-12-08T05:53:56.702Z,1.10
2022-12-08T05:56:23.609Z,1.09
2022-12-08T05:58:50.467Z,0.98
2022-12-08T06:01:24.610Z,1.10
2022-12-08T06:03:52.084Z,0.55
2022-12-08T06:06:19.111Z,-0.06
2022-12-08T06:08:45.748Z,1.14
2022-12-08T06:11:39.147Z,1.13
2022-12-08T06:14:10.346Z,-0.59
2022-12-08T06:16:36.972Z,0.15
2022-12-08T06:19:03.604Z,0.87
2022-12-08T06:21:30.259Z,0.96
2022-12-08T06:23:56.920Z,0.42
2022-12-08T06:26:23.561Z,1.15
2022-12-08T06:28:50.397Z,1.15
2022-12-08T06:31:22.765Z,1.19
2022-12-08T06:33:49.764Z,0.28
2022-12-08T06:36:19.964Z,1.19
2022-12-08T06:38:48.103Z,1.18
2022-12-08T06:41:15.082Z,0.41
2022-12-08T06:43:42.487Z,-0.13
2022-12-08T06:46:13.369Z,0.62
2022-12-08T06:48:40.074Z,0.89
2022-12-08T06:51:18.777Z,0.93
2022-12-08T06:53:46.596Z,1.15
2022-12-08T06:56:14.356Z,1.31
2022-12-08T06:58:40.990Z,1.13
2022-12-08T07:01:10.034Z,1.33
2022-12-08T07:03:37.778Z,0.71
2022-12-08T07:06:05.171Z,1.36
2022-12-08T07:08:32.888Z,1.33
2022-12-08T07:10:59.518Z,-0.55
2022-12-08T07:13:26.092Z,0.60
2022-12-08T07:15:52.667Z,1.34
2022-12-08T07:18:19.284Z,0.25
2022-12-08T07:20:45.950Z,1.32
2022-12-08T07:23:12.676Z,1.19
2022-12-08T07:25:39.219Z,0.14
2022-12-08T07:28:10.908Z,1.34
2022-12-08T07:30:38.559Z,1.36
2022-12-08T07:33:08.161Z,1.02
2022-12-08T07:35:35.361Z,1.41
2022-12-08T07:38:02.560Z,0.01
2022-12-08T07:40:30.060Z,1.40
2022-12-08T07:42:56.689Z,1.42
2022-12-08T07:45:28.292Z,0.77
2022-12-08T07:47:57.811Z,1.45
2022-12-08T07:50:24.599Z,0.38
2022-12-08T07:52:51.171Z,1.52
2022-12-08T07:55:17.706Z,0.39
2022-12-08T07:57:44.390Z,0.62
2022-12-08T08:00:11.522Z,0.05
2022-12-08T08:02:41.633Z,1.53
2022-12-08T08:05:09.023Z,1.30
2022-12-08T08:07:37.215Z,1.56
2022-12-08T08:10:06.809Z,1.62
2022-12-08T08:12:33.756Z,1.62
2022-12-08T08:15:02.885Z,1.67
2022-12-08T08:17:29.832Z,1.46
2022-12-08T08:19:56.863Z,1.10
2022-12-08T08:22:24.911Z,1.32
2022-12-08T08:24:51.651Z,1.74
2022-12-08T08:27:18.304Z,1.72
2022-12-08T08:29:47.171Z,1.76
2022-12-08T08:32:14.549Z,1.76
2022-12-08T08:34:41.112Z,1.78
2022-12-08T08:37:07.738Z,1.79
2022-12-08T08:39:35.784Z,1.80
2022-12-08T08:42:02.346Z,1.53
2022-12-08T08:44:28.980Z,1.82
2022-12-08T08:46:55.656Z,1.39
2022-12-08T08:49:22.320Z,0.67
2022-12-08T08:51:49.120Z,1.89
2022-12-08T08:54:15.759Z,1.95
2022-12-08T08:56:42.370Z,1.99
2022-12-08T08:59:09.663Z,1.14
2022-12-08T09:01:36.386Z,0.83
2022-12-08T09:04:03.284Z,1.27
2022-12-08T09:06:30.131Z,1.61
2022-12-08T09:08:56.726Z,1.35
2022-12-08T09:11:23.759Z,2.10
2022-12-08T09:13:51.760Z,2.14
2022-12-08T09:16:22.100Z,1.68
2022-12-08T09:18:49.514Z,1.20
2022-12-08T09:21:22.720Z,2.20
2022-12-08T09:23:56.491Z,2.26
2022-12-08T09:26:24.029Z,2.29
2022-12-08T09:28:52.536Z,2.32
2022-12-08T09:31:21.096Z,2.32
2022-12-08T09:33:48.876Z,2.37
2022-12-08T09:36:15.467Z,1.41
2022-12-08T09:38:42.169Z,2.46
2022-12-08T09:41:37.561Z,2.53
2022-12-08T09:44:28.939Z,2.56
2022-12-08T09:46:56.568Z,2.61
2022-12-08T09:49:39.430Z,2.69
2022-12-08T09:52:19.665Z,1.94
2022-12-08T09:54:46.302Z,2.73
2022-12-08T09:57:19.234Z,2.75
2022-12-08T09:59:57.640Z,1.74
2022-12-08T10:02:28.118Z,2.88
2022-12-08T10:04:56.543Z,2.89
2022-12-08T10:07:30.748Z,2.94
2022-12-08T10:10:06.509Z,3.01
2022-12-08T10:12:50.374Z,3.08
2022-12-08T10:15:38.739Z,3.15
2022-12-08T10:18:15.052Z,2.67
2022-12-08T10:20:44.215Z,3.26
2022-12-08T10:23:24.467Z,3.30
2022-12-08T10:25:58.946Z,2.17
2022-12-08T10:28:25.595Z,2.17
2022-12-08T10:30:52.251Z,2.38
2022-12-08T10:33:21.758Z,3.56
2022-12-08T10:35:54.046Z,3.60
2022-12-08T10:38:20.658Z,3.65
2022-12-08T10:40:49.691Z,3.72
2022-12-08T10:43:25.823Z,2.82
2022-12-08T10:45:52.704Z,2.05
2022-12-08T10:48:22.546Z,2.78
2022-12-08T10:50:52.382Z,4.09
2022-12-08T10:53:32.115Z,4.23
2022-12-08T10:56:01.665Z,4.37
2022-12-08T10:58:35.728Z,4.59
2022-12-08T11:01:09.575Z,2.26
2022-12-08T11:03:44.884Z,3.69
2022-12-08T11:06:22.498Z,4.13
2022-12-08T11:08:53.893Z,5.20
2022-12-08T11:11:24.455Z,5.15
2022-12-08T11:13:55.841Z,4.88
2022-12-08T11:16:23.351Z,4.99
2022-12-08T11:18:56.988Z,5.08
2022-12-08T11:21:35.431Z,4.08
2022-12-08T11:24:16.703Z,4.46
2022-12-08T11:26:50.092Z,3.82
2022-12-08T11:29:17.386Z,4.81
2022-12-08T11:31:50.076Z,4.81
2022-12-08T11:34:30.712Z,4.88
2022-12-08T11:36:58.561Z,4.93
2022-12-08T11:39:29.760Z,3.84
2022-12-08T11:41:57.857Z,4.65
2022-12-08T11:44:46.309Z,5.07
2022-12-08T11:47:42.347Z,5.03
2022-12-08T11:50:19.630Z,5.09
2022-12-08T11:52:49.706Z,4.78
2022-12-08T11:55:36.949Z,5.46
2022-12-08T11:58:15.727Z,5.82
2022-12-08T12:00:42.380Z,5.99
2022-12-08T12:03:45.608Z,5.89
2022-12-08T12:06:57.372Z,5.92
2022-12-08T12:09:36.351Z,5.94
2022-12-08T12:12:27.525Z,5.18
2022-12-08T12:15:30.700Z,6.14
2022-12-08T12:17:57.258Z,6.17
2022-12-08T12:20:35.991Z,6.13
2022-12-08T12:23:19.720Z,6.03
2022-12-08T12:25:55.222Z,6.22
2022-12-08T12:28:25.348Z,5.19
2022-12-08T12:31:00.840Z,6.28
2022-12-08T12:33:29.955Z,6.19
2022-12-08T12:35:58.630Z,5.20
2022-12-08T12:39:03.993Z,6.22
2022-12-08T12:41:50.638Z,6.23
2022-12-08T12:44:32.736Z,6.18
2022-12-08T12:47:04.592Z,6.29
2022-12-08T12:49:40.462Z,6.25
2022-12-08T12:52:09.715Z,6.05
2022-12-08T12:54:36.296Z,6.07
2022-12-08T12:57:05.457Z,5.95
2022-12-08T12:59:55.488Z,5.91
2022-12-08T13:02:34.018Z,5.89
2022-12-08T13:05:30.508Z,5.78
2022-12-08T13:08:07.729Z,5.68
2022-12-08T13:10:39.467Z,4.58
2022-12-08T13:13:18.005Z,5.52
2022-12-08T13:15:52.465Z,5.54
2022-12-08T13:18:20.985Z,5.53
2022-12-08T13:20:52.920Z,5.51
2022-12-08T13:23:43.459Z,5.53
2022-12-08T13:26:19.325Z,5.44
2022-12-08T13:29:01.343Z,5.58
2022-12-08T13:31:46.783Z,5.55
2022-12-08T13:34:22.740Z,5.43
2022-12-08T13:37:00.166Z,4.89
2022-12-08T13:40:01.625Z,5.43
2022-12-08T13:42:51.167Z,5.46
2022-12-08T13:45:43.590Z,5.44
2022-12-08T13:49:36.577Z,4.88
2022-12-08T13:57:25.987Z,5.24
2022-12-08T13:59:52.699Z,5.15
2022-12-08T14:02:47.136Z,4.82
2022-12-08T14:05:19.043Z,4.81
2022-12-08T14:07:49.898Z,3.68
2022-12-08T14:10:26.978Z,4.43
2022-12-08T14:13:03.736Z,3.36
2022-12-08T14:15:37.837Z,4.32
2022-12-08T14:18:07.093Z,4.50
2022-12-08T14:20:57.897Z,4.33
2022-12-08T14:23:22.665Z,4.58
2022-12-08T14:25:49.311Z,4.57
2022-12-08T14:28:16.662Z,4.51
2022-12-08T14:30:43.374Z,4.18
2022-12-08T14:33:16.742Z,4.30
2022-12-08T14:35:49.163Z,4.29
2022-12-08T14:38:17.814Z,3.96
2022-12-08T14:40:49.799Z,3.54
2022-12-08T14:43:20.716Z,4.10
2022-12-08T14:45:49.136Z,4.12
2022-12-08T14:48:30.920Z,4.05
2022-12-08T14:51:03.485Z,4.02
2022-12-08T14:53:53.502Z,3.38
2022-12-08T14:56:32.678Z,3.87
2022-12-08T14:59:32.374Z,3.80
2022-12-08T15:02:24.130Z,3.76
2022-12-08T15:04:56.845Z,3.36
2022-12-08T15:07:26.658Z,3.67
2022-12-08T15:10:14.774Z,3.64
2022-12-08T15:13:00.268Z,3.61
2022-12-08T15:15:27.623Z,3.60
2022-12-08T15:18:17.104Z,3.55
2022-12-08T15:20:43.986Z,3.52
2022-12-08T15:23:30.614Z,3.51
2022-12-08T15:25:59.070Z,1.98
2022-12-08T15:28:30.379Z,3.42
2022-12-08T15:30:57.765Z,3.33
2022-12-08T15:33:24.641Z,3.04
2022-12-08T15:35:51.647Z,3.18
2022-12-08T15:38:28.887Z,2.14
2022-12-08T15:40:58.669Z,2.95
2022-12-08T15:43:25.400Z,2.65
2022-12-08T15:45:59.527Z,1.15
2022-12-08T15:48:29.368Z,1.49
2022-12-08T15:50:56.607Z,2.20
2022-12-08T15:53:26.063Z,2.47
2022-12-08T15:56:25.934Z,2.39
2022-12-08T15:58:56.606Z,2.29
2022-12-08T16:01:24.434Z,2.18
2022-12-08T16:09:26.128Z,1.92
2022-12-08T16:12:11.442Z,1.84
2022-12-08T16:17:27.065Z,0.85
2022-12-08T16:19:54.290Z,1.55
2022-12-08T16:25:21.826Z,1.39
2022-12-08T16:28:44.798Z,1.27
2022-12-08T16:30:39.739Z,-0.60
2022-12-08T16:33:06.307Z,0.93
2022-12-08T16:35:33.166Z,1.04
2022-12-08T16:37:59.790Z,1.00
2022-12-08T16:40:26.448Z,0.90
2022-12-08T16:42:53.363Z,0.82
2022-12-08T16:45:24.313Z,0.75
2022-12-08T16:47:57.038Z,-0.54
2022-12-08T16:50:29.256Z,0.28
2022-12-08T16:53:05.565Z,0.58
2022-12-08T16:55:33.022Z,-0.63
2022-12-08T16:57:59.767Z,-0.50
2022-12-08T17:00:28.507Z,0.43
2022-12-08T17:02:55.746Z,0.37
2022-12-08T17:05:25.072Z,0.32
2022-12-08T17:07:53.334Z,0.27
2022-12-08T17:10:25.066Z,0.19
2022-12-08T17:12:52.600Z,-0.90
2022-12-08T17:15:22.157Z,0.09
2022-12-08T17:17:49.549Z,-1.26
2022-12-08T17:20:19.224Z,0.02
2022-12-08T17:22:46.932Z,0.00
2022-12-08T17:25:13.986Z,-1.10
2022-12-08T17:27:41.388Z,-0.07
2022-12-08T17:30:11.070Z,-0.21
2022-12-08T17:32:38.207Z,-0.14
2022-12-08T17:35:05.974Z,-0.18
2022-12-08T17:37:32.768Z,-0.21
2022-12-08T17:39:59.376Z,-1.52
2022-12-08T17:42:27.166Z,-0.51
2022-12-08T17:44:54.236Z,-0.42
2022-12-08T17:47:20.824Z,-0.29
2022-12-08T17:49:47.419Z,-0.74
2022-12-08T17:52:14.035Z,-0.33
2022-12-08T17:54:40.713Z,-1.14
2022-12-08T17:57:07.362Z,-1.57
2022-12-08T17:59:33.965Z,-1.23
2022-12-08T18:02:04.422Z,-1.53
2022-12-08T18:04:31.177Z,-0.24
2022-12-08T18:07:01.296Z,-0.43
2022-12-08T18:09:31.166Z,-0.18
2022-12-08T18:11:58.057Z,-1.20
2022-12-08T18:14:24.896Z,-1.11
2022-12-08T18:16:51.669Z,-1.03
2022-12-08T18:19:18.617Z,-0.27
2022-12-08T18:21:45.213Z,-0.08
2022-12-08T18:24:22.010Z,-0.03
2022-12-08T18:26:50.597Z,-0.45
2022-12-08T18:29:17.418Z,-1.65
2022-12-08T18:31:43.997Z,-0.68
2022-12-08T18:34:10.576Z,0.05
2022-12-08T18:36:37.161Z,-0.75
2022-12-08T18:39:08.907Z,-0.06
2022-12-08T18:41:40.379Z,0.08
2022-12-08T18:44:08.814Z,0.07
2022-12-08T18:46:35.727Z,0.08
2022-12-08T18:49:02.348Z,0.12
2022-12-08T18:51:28.955Z,-0.86
2022-12-08T18:53:55.503Z,-0.40
2022-12-08T18:56:31.428Z,0.15
2022-12-08T18:59:03.624Z,0.14
2022-12-08T19:01:35.481Z,0.11
2022-12-08T19:04:27.288Z,0.12
2022-12-08T19:06:52.748Z,-0.72
2022-12-08T19:09:20.007Z,0.08
2022-12-08T19:11:46.815Z,-1.76
2022-12-08T19:14:13.357Z,0.01
2022-12-08T19:16:39.979Z,-1.31
2022-12-08T19:19:06.585Z,-0.03
2022-12-08T19:21:33.431Z,-0.67
2022-12-08T19:24:00.359Z,-0.10
2022-12-08T19:26:28.354Z,-0.92
2022-12-08T19:28:55.017Z,-0.10
2022-12-08T19:31:21.764Z,-0.07
2022-12-08T19:33:48.363Z,-0.18
2022-12-08T19:36:18.292Z,-1.00
2022-12-08T19:39:04.002Z,-0.04
2022-12-08T19:41:49.172Z,-0.90
2022-12-08T19:44:42.753Z,-0.33
2022-12-08T19:47:09.655Z,-0.01
2022-12-08T19:49:36.593Z,-1.22
2022-12-08T19:52:03.956Z,-0.55
2022-12-08T19:54:30.560Z,-0.25
2022-12-08T19:56:57.340Z,0.02
2022-12-08T19:59:26.448Z,0.02
2022-12-08T20:01:55.759Z,-1.27
2022-12-08T20:04:23.766Z,-1.53
2022-12-08T20:06:52.381Z,0.04
2022-12-08T20:09:19.790Z,-0.01
2022-12-08T20:11:46.726Z,0.02
2022-12-08T20:14:13.324Z,-1.30
2022-12-08T20:16:41.740Z,-0.51
2022-12-08T20:19:09.086Z,-0.01
2022-12-08T20:21:35.629Z,0.02
2022-12-08T20:24:02.245Z,0.03
2022-12-08T20:26:28.832Z,0.06
2022-12-08T20:28:55.439Z,-1.20
2022-12-08T20:31:27.296Z,-0.22
2022-12-08T20:33:55.376Z,0.09
2022-12-08T20:36:22.810Z,0.13
2022-12-08T20:38:51.481Z,0.16
2022-12-08T20:41:19.224Z,0.14
2022-12-08T20:43:47.154Z,0.16
2022-12-08T20:46:16.220Z,0.21
2022-12-08T20:48:43.956Z,-0.60
2022-12-08T20:51:18.897Z,-0.44
2022-12-08T20:53:46.109Z,-0.93
2022-12-08T20:56:21.268Z,0.29
2022-12-08T20:58:49.191Z,0.28
2022-12-08T21:01:18.724Z,0.29
2022-12-08T21:03:46.156Z,0.33
2022-12-08T21:06:13.411Z,-0.25
2022-12-08T21:08:41.409Z,0.34
2022-12-08T21:11:09.460Z,-0.71
2022-12-08T21:13:39.523Z,0.36
2022-12-08T21:16:09.143Z,-0.59
2022-12-08T21:18:39.624Z,0.38
2022-12-08T21:21:10.705Z,0.37
2022-12-08T21:23:37.796Z,0.38
2022-12-08T21:26:14.366Z,0.37
2022-12-08T21:28:41.935Z,0.25
2022-12-08T21:31:10.261Z,-1.06
2022-12-08T21:33:37.241Z,-1.09
2022-12-08T21:36:20.398Z,-0.04
2022-12-08T21:38:47.631Z,0.40
2022-12-08T21:41:37.270Z,0.03
2022-12-08T21:44:05.071Z,-0.81
2022-12-08T21:46:32.082Z,-1.10
2022-12-08T21:48:58.897Z,-0.08
2022-12-08T21:51:25.775Z,-0.06
2022-12-08T21:53:52.610Z,-0.10
2022-12-08T21:56:20.789Z,-0.77
2022-12-08T21:58:47.424Z,0.47
2022-12-08T22:01:16.620Z,0.07
2022-12-08T22:03:43.650Z,-0.39
2022-12-08T22:06:12.817Z,0.44
2022-12-08T22:08:39.913Z,0.10
2022-12-08T22:11:08.098Z,-0.10
2022-12-08T22:13:36.620Z,0.48
2022-12-08T22:16:06.681Z,-0.75
2022-12-08T22:18:34.670Z,0.48
2022-12-08T22:21:02.540Z,0.49
2022-12-08T22:23:29.269Z,-0.50
2022-12-08T22:26:00.077Z,0.51
2022-12-08T22:28:29.954Z,0.50
2022-12-08T22:30:56.653Z,0.52
2022-12-08T22:33:23.334Z,-1.32
2022-12-08T22:36:06.293Z,0.46
2022-12-08T22:38:36.542Z,0.47
2022-12-08T22:41:04.895Z,0.48
2022-12-08T22:43:33.747Z,-0.59
2022-12-08T22:46:00.692Z,0.50
2022-12-08T22:48:28.064Z,-0.29
2022-12-08T22:50:59.683Z,-0.43
2022-12-08T22:53:26.872Z,0.55
2022-12-08T22:55:53.805Z,0.25
2022-12-08T22:58:20.508Z,0.57
2022-12-08T23:00:47.155Z,0.40
2022-12-08T23:03:13.802Z,0.57
2022-12-08T23:05:40.997Z,-0.07
2022-12-08T23:08:08.517Z,0.31
2022-12-08T23:10:35.813Z,-0.51
2022-12-08T23:13:05.284Z,0.59
2022-12-08T23:15:32.100Z,0.13
2022-12-08T23:17:58.820Z,0.00
2022-12-08T23:20:25.775Z,0.59
2022-12-08T23:22:52.554Z,-0.37
2022-12-08T23:25:22.117Z,-0.60
2022-12-08T23:27:48.693Z,0.57
2022-12-08T23:30:15.845Z,-1.14
2022-12-08T23:32:42.803Z,0.57
2022-12-08T23:35:09.679Z,0.57
2022-12-08T23:37:36.571Z,0.57
2022-12-08T23:40:05.367Z,-0.47
2022-12-08T23:42:33.934Z,-0.44
2022-12-08T23:45:00.798Z,0.50
2022-12-08T23:47:28.988Z,-0.22
2022-12-08T23:49:55.681Z,0.50
2022-12-08T23:52:22.260Z,0.48
2022-12-08T23:54:54.599Z,0.42
2022-12-08T23:57:21.789Z,-0.26
2022-12-08T23:59:48.374Z,0.29
